Time;durP1;ratioP1;P1;durP2;ratioP2;P2;SDS_P1;SDS_P2;PMS_P1;PMS_P2;Temp;Humidity;BMP_temperature;BMP_pressure;BME280_temperature;BME280_humidity;BME280_pressure;Samples;Min_cycle;Max_cycle;Signal;HPM_P1;HPM_P2
2022/06/20 00:01:35;;;;;;;3.67;1.80;;;;;;;22.34;47.42;99431.77;1720068;82;21586;-60
2022/06/20 00:04:02;;;;;;;2.02;1.30;;;;;;;22.32;47.58;99424.86;1708842;82;21530;-60
2022/06/20 00:06:29;;;;;;;2.33;1.60;;;;;;;22.29;47.41;99426.51;1716438;82;21522;-60
2022/06/20 00:08:56;;;;;;;3.30;1.55;;;;;;;22.26;47.41;99424.11;1715534;82;21799;-60
2022/06/20 00:11:30;;;;;;;;;;;;;;;22.25;47.36;99429.97;1718800;80;21535;-60
2022/06/20 00:13:57;;;;;;;4.00;1.60;;;;;;;22.22;47.52;99426.70;1718997;80;20143;-60
2022/06/20 00:16:24;;;;;;;6.45;1.72;;;;;;;22.15;47.38;99428.63;1682787;83;21570;-60
2022/06/20 00:18:50;;;;;;;2.33;1.57;;;;;;;22.11;47.42;99430.39;1717649;80;21574;-60
2022/06/20 00:21:20;;;;;;;3.95;1.80;;;;;;;22.04;47.26;99430.61;1687548;83;21801;-60
2022/06/20 00:23:47;;;;;;;4.92;1.80;;;;;;;22.04;47.26;99430.61;1722357;80;21435;-60
2022/06/20 00:26:15;;;;;;;2.83;1.70;;;;;;;21.98;47.70;99433.38;1721485;81;21496;-60
2022/06/20 00:28:44;;;;;;;4.35;1.82;;;;;;;21.98;47.70;99433.38;1721069;81;21495;-60
2022/06/20 00:31:11;;;;;;;1.80;1.45;;;;;;;21.95;47.75;99432.34;1713113;80;21545;-60
2022/06/20 00:33:38;;;;;;;3.40;1.40;;;;;;;21.92;47.74;99430.77;1714410;81;21966;-60
2022/06/20 00:36:05;;;;;;;3.50;2.23;;;;;;;21.91;47.72;99434.45;1721414;82;21550;-61
2022/06/20 00:38:32;;;;;;;5.72;1.35;;;;;;;21.91;47.82;99437.13;1720085;81;21184;-60
2022/06/20 00:41:02;;;;;;;2.15;1.50;;;;;;;21.88;47.77;99444.09;1720039;82;21491;-60
2022/06/20 00:43:47;;;;;;;1.77;1.50;;;;;;;21.85;47.79;99436.37;1713743;82;21423;-60
2022/06/20 00:46:49;;;;;;;4.95;1.50;;;;;;;21.83;47.84;99434.34;1715501;82;21535;-61
2022/06/20 00:49:32;;;;;;;2.95;1.40;;;;;;;21.79;47.83;99438.27;1724018;80;21467;-59
2022/06/20 00:52:09;;;;;;;3.42;1.50;;;;;;;21.76;47.80;99434.55;1714149;82;21031;-64
2022/06/20 00:54:58;;;;;;;2.20;1.50;;;;;;;21.76;47.80;99432.72;1717918;82;21496;-62
2022/06/20 00:57:41;;;;;;;2.47;1.32;;;;;;;21.72;47.76;99428.64;1720618;81;21665;-61
2022/06/20 01:00:19;;;;;;;5.30;1.55;;;;;;;21.71;47.74;99423.42;1722865;82;21813;-59
2022/06/20 01:02:48;;;;;;;1.60;1.23;;;;;;;21.68;47.79;99427.71;1721780;82;21416;-60
2022/06/20 01:05:23;;;;;;;3.45;1.60;;;;;;;21.65;47.90;99429.35;1719699;80;21627;-60
2022/06/20 01:07:58;;;;;;;4.12;1.20;;;;;;;21.63;47.96;99431.33;1707310;82;21530;-59
2022/06/20 01:10:26;;;;;;;9.85;1.77;;;;;;;21.61;47.98;99426.61;1714972;81;21491;-60
2022/06/20 01:13:04;;;;;;;6.65;1.40;;;;;;;21.58;47.96;99423.71;1710713;82;21953;-60
2022/06/20 01:15:37;;;;;;;1.77;1.55;;;;;;;21.57;47.90;99418.86;1715567;82;21590;-60
2022/06/20 01:18:12;;;;;;;3.25;1.45;;;;;;;21.57;47.87;99416.19;1720168;82;21507;-60
2022/06/20 01:20:38;;;;;;;3.37;1.20;;;;;;;21.53;47.99;99416.13;1712838;82;21471;-60
2022/06/20 01:23:39;;;;;;;1.42;1.27;;;;;;;21.51;48.04;99415.89;1711306;80;21516;-60
2022/06/20 01:26:29;;;;;;;4.35;1.70;;;;;;;21.51;47.96;99413.22;1727806;82;21511;-59
2022/06/20 01:29:04;;;;;;;2.50;1.45;;;;;;;21.47;47.87;99410.48;1721227;81;21066;-59
2022/06/20 01:31:33;;;;;;;3.02;1.50;;;;;;;21.38;47.90;99406.81;1714552;80;21022;-59
2022/06/20 01:34:01;;;;;;;8.60;1.37;;;;;;;21.38;47.90;99406.81;1725807;82;21586;-59
2022/06/20 01:39:14;;;;;;;1.30;1.20;;;;;;;21.39;47.83;99410.66;1722671;80;21453;-60
2022/06/20 01:44:27;;;;;;;1.65;1.40;;;;;;;21.37;47.80;99416.64;1721103;82;20948;-59
2022/06/20 01:46:54;;;;;;;3.67;1.70;;;;;;;21.38;47.89;99413.00;1725805;81;21519;-59
2022/06/20 01:49:23;;;;;;;3.55;1.25;;;;;;;21.34;47.94;99412.92;1724205;81;21467;-59
2022/06/20 01:52:00;;;;;;;3.30;1.57;;;;;;;21.34;48.03;99407.58;1710446;82;21799;-59
2022/06/20 01:54:30;;;;;;;3.58;1.87;;;;;;;21.33;48.01;99407.72;1726112;80;21448;-59
2022/06/20 01:56:58;;;;;;;5.45;1.52;;;;;;;21.32;47.98;99402.87;1723871;80;21473;-59
2022/06/20 01:59:32;;;;;;;2.35;1.50;;;;;;;21.31;48.06;99403.84;1722430;81;21424;-59
2022/06/20 02:01:59;;;;;;;1.60;1.50;;;;;;;21.31;48.06;99403.84;1723667;82;21570;-59
2022/06/20 02:04:28;;;;;;;2.40;1.30;;;;;;;21.32;48.00;99408.22;1726586;80;21753;-59
2022/06/20 02:06:55;;;;;;;3.85;1.77;;;;;;;21.31;48.03;99397.66;1720257;82;21542;-60
2022/06/20 02:09:23;;;;;;;1.70;1.50;;;;;;;21.32;47.98;99404.67;1716316;81;21542;-59
2022/06/20 02:11:50;;;;;;;2.92;1.80;;;;;;;21.31;47.99;99401.16;1718703;82;21605;-59
2022/06/20 02:14:21;;;;;;;3.55;1.20;;;;;;;21.27;48.10;99397.09;1722167;80;21451;-59
2022/06/20 02:16:53;;;;;;;1.90;1.20;;;;;;;21.26;48.10;99403.41;1719441;81;21531;-59
2022/06/20 02:19:26;;;;;;;2.45;1.32;;;;;;;21.25;48.12;99403.07;1717977;81;21534;-59
2022/06/20 02:21:55;;;;;;;3.52;1.62;;;;;;;21.26;48.11;99403.91;1715056;81;21487;-59
2022/06/20 02:24:21;;;;;;;2.08;1.30;;;;;;;21.27;47.95;99414.97;1721789;82;21547;-59
2022/06/20 02:26:51;;;;;;;1.55;1.35;;;;;;;21.28;47.83;99408.12;1731841;82;21484;-60
2022/06/20 02:29:24;;;;;;;5.45;1.72;;;;;;;21.30;47.77;99406.64;1717364;82;21748;-59
2022/06/20 02:32:00;;;;;;;5.10;1.55;;;;;;;21.31;47.71;99406.52;1726218;80;21541;-59
2022/06/20 02:34:31;;;;;;;1.50;1.23;;;;;;;21.34;47.66;99411.59;1711798;82;21483;-59
2022/06/20 02:37:03;;;;;;;1.35;1.20;;;;;;;21.33;47.73;99414.40;1730440;81;21419;-59
2022/06/20 02:39:30;;;;;;;4.05;1.52;;;;;;;21.35;47.68;99412.42;1729101;81;21442;-59
2022/06/20 02:42:02;;;;;;;2.62;1.35;;;;;;;21.38;47.52;99417.51;1725416;80;21896;-59
2022/06/20 02:44:29;;;;;;;5.45;1.37;;;;;;;21.37;47.48;99417.97;1728354;81;21503;-59
2022/06/20 02:46:55;;;;;;;3.17;1.57;;;;;;;21.39;47.54;99420.02;1736411;80;20990;-59
2022/06/20 02:49:25;;;;;;;2.33;1.47;;;;;;;21.38;47.64;99421.02;1733991;80;21010;-59
2022/06/20 02:51:52;;;;;;;2.27;1.52;;;;;;;21.42;47.52;99428.27;1724657;81;21550;-59
2022/06/20 02:54:25;;;;;;;4.45;2.10;;;;;;;21.42;47.52;99428.27;1735720;81;21778;-60
2022/06/20 02:56:58;;;;;;;3.40;1.45;;;;;;;21.42;47.56;99429.61;1723553;81;21042;-60
2022/06/20 02:59:39;;;;;;;3.72;1.85;;;;;;;21.43;47.56;99427.77;1723197;80;21585;-60
2022/06/20 03:02:10;;;;;;;5.28;1.80;;;;;;;21.43;47.59;99433.12;1729293;81;21487;-59
2022/06/20 03:04:41;;;;;;;2.33;1.30;;;;;;;21.44;47.71;99437.50;1739010;80;21598;-59
2022/06/20 03:07:15;;;;;;;3.12;1.70;;;;;;;21.46;47.74;99435.55;1741175;81;21516;-59
2022/06/20 03:09:45;;;;;;;6.83;1.95;;;;;;;21.49;47.78;99437.46;1737262;81;21518;-59
2022/06/20 03:12:11;;;;;;;2.75;1.70;;;;;;;21.53;47.88;99436.19;1724732;81;21599;-59
2022/06/20 03:14:45;;;;;;;3.55;1.65;;;;;;;21.55;47.95;99438.22;1730944;81;21242;-60
2022/06/20 03:17:14;;;;;;;2.27;1.90;;;;;;;21.57;47.92;99437.59;1727444;81;21564;-59
2022/06/20 03:19:44;;;;;;;2.50;1.65;;;;;;;21.60;47.84;99443.14;1728343;81;22007;-59
2022/06/20 03:22:14;;;;;;;4.53;1.70;;;;;;;21.60;47.85;99433.77;1737184;80;21597;-59
2022/06/20 03:24:42;;;;;;;2.72;2.35;;;;;;;21.62;47.92;99433.64;1734314;81;21511;-60
2022/06/20 03:27:12;;;;;;;3.08;1.98;;;;;;;21.65;47.95;99438.72;1726028;80;21581;-59
2022/06/20 03:29:39;;;;;;;4.87;2.00;;;;;;;21.74;47.53;99447.23;1740051;81;21156;-60
2022/06/20 03:32:06;;;;;;;5.53;1.87;;;;;;;21.74;47.53;99447.23;1735593;81;21905;-59
2022/06/20 03:34:33;;;;;;;2.50;2.03;;;;;;;21.79;47.46;99443.61;1737283;81;21506;-59
2022/06/20 03:37:02;;;;;;;3.40;2.10;;;;;;;21.83;47.42;99449.06;1724532;81;21511;-60
2022/06/20 03:39:29;;;;;;;3.70;2.05;;;;;;;21.89;47.52;99449.81;1720377;80;21472;-60
2022/06/20 03:41:55;;;;;;;4.70;2.65;;;;;;;21.91;47.72;99441.65;1722863;81;21487;-60
2022/06/20 03:44:29;;;;;;;5.53;2.00;;;;;;;21.98;47.74;99448.09;1717188;82;21813;-60
2022/06/20 03:47:03;;;;;;;3.02;2.00;;;;;;;22.03;47.74;99448.52;1714261;80;21621;-60
2022/06/20 03:49:47;;;;;;;2.62;2.27;;;;;;;22.10;47.63;99453.65;1725447;81;21522;-60
2022/06/20 03:52:20;;;;;;;7.47;2.83;;;;;;;22.15;47.54;99455.41;1712278;82;21578;-60
2022/06/20 03:55:00;;;;;;;2.80;2.50;;;;;;;22.22;47.09;99449.47;1718451;80;21610;-60
2022/06/20 03:57:40;;;;;;;2.77;2.58;;;;;;;22.27;46.76;99456.61;1718289;81;21802;-59
2022/06/20 04:00:19;;;;;;;8.05;2.65;;;;;;;22.34;46.82;99451.02;1740430;80;21519;-60
2022/06/20 04:03:05;;;;;;;4.20;2.67;;;;;;;22.40;46.74;99454.95;1714520;82;21538;-60
2022/06/20 04:05:44;;;;;;;6.70;2.98;;;;;;;22.46;46.64;99446.33;1719439;82;21489;-60
2022/06/20 04:10:57;;;;;;;7.60;2.98;;;;;;;22.50;46.58;99443.19;1717221;82;21561;-60
2022/06/20 04:11:01;;;;;;;3.47;2.92;;;;;;;22.54;46.55;99435.20;1724802;81;22057;-61
2022/06/20 04:13:57;;;;;;;4.08;2.72;;;;;;;22.63;46.46;99436.66;1721992;80;21460;-61
2022/06/20 04:16:43;;;;;;;4.45;3.08;;;;;;;22.69;46.20;99436.06;1723759;81;21455;-60
2022/06/20 04:19:31;;;;;;;3.40;2.70;;;;;;;22.78;45.83;99425.80;1722506;81;21578;-60
2022/06/20 04:22:12;;;;;;;;;;;;;;;22.86;46.04;99421.86;1722473;82;21423;-61
2022/06/20 04:24:55;;;;;;;5.70;2.50;;;;;;;22.97;45.89;99396.69;1720657;81;21776;-60
2022/06/20 04:27:39;;;;;;;8.35;2.98;;;;;;;22.97;45.89;99396.69;1724863;80;21400;-61
2022/06/20 04:30:10;;;;;;;6.97;3.00;;;;;;;23.10;46.25;99383.78;1710865;81;21495;-59
2022/06/20 04:32:55;;;;;;;7.33;3.00;;;;;;;23.10;46.25;99383.78;1702965;81;21454;-58
2022/06/20 04:35:30;;;;;;;5.22;2.58;;;;;;;23.19;45.44;99377.15;1709328;81;21410;-59
2022/06/20 04:38:01;;;;;;;7.30;3.08;;;;;;;23.26;45.15;99375.55;1677019;83;22493;-60
2022/06/20 04:40:42;;;;;;;6.45;2.98;;;;;;;23.32;45.07;99374.45;1684778;83;20978;-59
2022/06/20 04:43:17;;;;;;;3.15;2.70;;;;;;;23.39;44.98;99369.80;1683275;83;21594;-59
2022/06/20 04:45:58;;;;;;;6.17;3.22;;;;;;;23.46;44.31;99359.63;1685878;83;21553;-59
2022/06/20 04:48:25;;;;;;;4.55;2.98;;;;;;;23.51;44.28;99357.33;1691992;83;21471;-59
2022/06/20 04:51:00;;;;;;;5.60;3.17;;;;;;;23.59;44.41;99357.05;1727453;82;21956;-60
2022/06/20 04:53:34;;;;;;;6.80;3.25;;;;;;;23.84;44.36;99364.29;1712270;80;21451;-61
2022/06/20 04:56:03;;;;;;;4.20;2.83;;;;;;;23.84;44.36;99364.29;1730196;82;21586;-60
2022/06/20 04:58:35;;;;;;;4.08;2.58;;;;;;;23.93;44.24;99358.48;1728079;82;21534;-60
2022/06/20 05:01:02;;;;;;;3.37;3.05;;;;;;;24.05;43.80;99348.31;1734076;82;22032;-60
2022/06/20 05:03:35;;;;;;;3.10;2.62;;;;;;;24.13;43.06;99341.66;1726240;80;21495;-62
2022/06/20 05:06:02;;;;;;;5.17;3.10;;;;;;;24.22;43.06;99345.20;1724482;82;21494;-59
2022/06/20 05:08:34;;;;;;;3.80;3.00;;;;;;;24.32;42.59;99350.45;1722540;80;21571;-60
2022/06/20 05:11:09;;;;;;;4.97;2.85;;;;;;;24.41;42.45;99345.45;1727330;82;21510;-60
2022/06/20 05:13:47;;;;;;;4.85;3.00;;;;;;;24.51;42.43;99341.31;1727376;82;21511;-60
2022/06/20 05:16:20;;;;;;;;;;;;;;;24.61;42.13;99338.01;1730843;82;21770;-59
2022/06/20 05:18:54;;;;;;;2.50;2.30;;;;;;;24.70;41.62;99331.66;1726910;80;20436;-60
2022/06/20 05:21:26;;;;;;;2.30;1.95;;;;;;;24.76;41.78;99335.53;1730090;80;21632;-60
2022/06/20 05:24:08;;;;;;;6.08;2.02;;;;;;;24.83;41.66;99341.42;1722791;82;21665;-60
2022/06/20 05:26:38;;;;;;;2.77;1.80;;;;;;;24.91;40.95;99349.17;1729859;81;21582;-62
2022/06/20 05:29:09;;;;;;;2.87;1.80;;;;;;;24.99;40.62;99326.32;1734210;82;21826;-62
2022/06/20 05:31:45;;;;;;;3.40;1.55;;;;;;;25.07;40.41;99339.77;1731326;81;21427;-61
2022/06/20 05:34:23;;;;;;;3.85;1.47;;;;;;;25.18;40.36;99342.64;1729129;82;21506;-60
2022/06/20 05:37:07;;;;;;;4.30;1.35;;;;;;;25.29;40.52;99345.03;1728124;80;21018;-62
2022/06/20 05:39:44;;;;;;;3.20;1.50;;;;;;;25.44;39.85;99351.93;1721147;82;21530;-61
2022/06/20 05:42:14;;;;;;;3.30;1.62;;;;;;;25.52;39.54;99343.01;1717335;81;27117;-63
2022/06/20 05:44:40;;;;;;;2.47;1.45;;;;;;;25.56;39.49;99338.48;1712084;81;21571;-62
2022/06/20 05:47:18;;;;;;;2.08;1.20;;;;;;;25.67;39.51;99336.44;1725615;81;21483;-64
2022/06/20 05:49:52;;;;;;;1.47;1.07;;;;;;;25.79;38.80;99341.81;1717431;81;21439;-63
2022/06/20 05:52:23;;;;;;;1.50;1.40;;;;;;;25.90;38.86;99348.19;1713694;81;21677;-60
2022/06/20 05:54:55;;;;;;;1.30;1.20;;;;;;;26.00;38.44;99348.85;1731505;79;21894;-61
2022/06/20 05:57:23;;;;;;;3.12;1.30;;;;;;;26.07;38.34;99343.63;1720124;81;21503;-62
2022/06/20 05:59:55;;;;;;;2.35;1.60;;;;;;;26.16;37.96;99342.59;1725081;81;21523;-62
2022/06/20 06:02:39;;;;;;;1.90;1.02;;;;;;;26.22;37.56;99337.02;1719215;81;21554;-61
2022/06/20 06:05:23;;;;;;;3.58;1.07;;;;;;;26.29;37.45;99328.55;1719564;81;21570;-62
2022/06/20 06:08:00;;;;;;;3.58;1.32;;;;;;;26.37;37.76;99319.58;1727355;81;21804;-63
2022/06/20 06:11:03;;;;;;;3.20;1.55;;;;;;;26.49;37.26;99318.70;1722183;80;21645;-61
2022/06/20 06:13:38;;;;;;;6.80;0.95;;;;;;;26.61;36.97;99314.61;1719921;81;21634;-63
2022/06/20 06:19:04;;;;;;;1.45;1.00;;;;;;;26.86;36.61;99305.02;1720839;82;21413;-63
2022/06/20 06:21:31;;;;;;;11.65;2.83;;;;;;;26.94;36.45;99290.14;1722554;80;21812;-63
2022/06/20 06:23:57;;;;;;;1.17;1.07;;;;;;;27.03;35.56;99279.63;1702788;82;21660;-63
2022/06/20 06:26:24;;;;;;;2.27;1.10;;;;;;;27.06;35.61;99280.59;1712767;80;21490;-63
2022/06/20 06:28:51;;;;;;;2.83;1.30;;;;;;;27.18;35.47;99265.66;1722696;80;21081;-63
2022/06/20 06:31:31;;;;;;;1.20;1.10;;;;;;;27.29;35.36;99255.47;1717190;80;21002;-65
2022/06/20 06:34:07;;;;;;;4.50;1.30;;;;;;;27.37;35.26;99247.31;1718089;80;22070;-63
2022/06/20 06:36:44;;;;;;;7.83;1.65;;;;;;;27.50;34.80;99253.41;1712705;82;21427;-63
2022/06/20 06:39:25;;;;;;;2.98;1.20;;;;;;;27.63;34.51;99244.66;1712487;80;21035;-63
2022/06/20 06:41:58;;;;;;;2.35;1.20;;;;;;;27.69;34.34;99235.81;1713155;82;21506;-64
2022/06/20 06:44:40;;;;;;;8.30;1.32;;;;;;;27.76;34.22;99230.00;1720983;80;21535;-66
2022/06/20 06:47:25;;;;;;;3.40;1.07;;;;;;;27.85;33.52;99230.75;1733073;81;21901;-65
2022/06/20 06:49:59;;;;;;;5.83;1.30;;;;;;;27.89;33.27;99234.78;1708924;80;21538;-64
2022/06/20 06:52:42;;;;;;;3.62;1.12;;;;;;;28.01;33.33;99233.29;1725704;82;21412;-63
2022/06/20 06:55:36;;;;;;;1.57;1.02;;;;;;;28.12;32.92;99228.75;1715704;80;21491;-63
2022/06/20 06:58:20;;;;;;;5.20;1.50;;;;;;;28.25;32.74;99223.99;1724608;81;21069;-63
2022/06/20 07:00:52;;;;;;;1.45;1.10;;;;;;;28.34;31.70;99222.02;1718548;80;21782;-64
2022/06/20 07:03:30;;;;;;;4.28;0.80;;;;;;;28.43;32.00;99215.47;1683013;82;21506;-62
2022/06/20 07:06:06;;;;;;;2.10;1.00;;;;;;;28.51;32.02;99225.32;1720045;82;21609;-60
2022/06/20 07:08:44;;;;;;;1.80;1.30;;;;;;;28.59;31.33;99217.11;1650319;84;21735;-63
2022/06/20 07:11:24;;;;;;;2.98;1.00;;;;;;;28.67;31.74;99217.00;1716087;81;21515;-60
2022/06/20 07:14:06;;;;;;;3.20;1.17;;;;;;;28.78;31.54;99216.97;1716559;80;21834;-60
2022/06/20 07:16:45;;;;;;;2.70;0.90;;;;;;;28.88;31.65;99208.55;1713350;80;21551;-61
2022/06/20 07:19:13;;;;;;;1.00;0.90;;;;;;;28.92;30.79;99210.66;1712743;80;21542;-68
2022/06/20 07:21:40;;;;;;;;;;;;;;;28.99;30.34;99212.58;1720873;80;20994;-68
2022/06/20 07:24:10;;;;;;;1.85;0.88;;;;;;;29.05;30.65;99204.53;1723442;80;20429;-67
2022/06/20 07:26:46;;;;;;;2.08;1.15;;;;;;;29.09;30.54;99219.86;1712841;81;21535;-67
2022/06/20 07:29:20;;;;;;;3.90;1.72;;;;;;;29.17;30.11;99210.79;1720390;81;21526;-67
2022/06/20 07:31:51;;;;;;;3.08;1.25;;;;;;;29.23;30.63;99205.41;1721362;80;21614;-67
2022/06/20 07:34:39;;;;;;;3.58;1.02;;;;;;;29.35;30.76;99207.56;1724196;81;21432;-67
2022/06/20 07:37:26;;;;;;;2.62;0.95;;;;;;;29.40;30.36;99206.47;1729818;80;21626;-66
2022/06/20 07:40:22;;;;;;;5.55;1.20;;;;;;;29.48;29.96;99207.16;1735291;81;21785;-68
2022/06/20 07:43:01;;;;;;;1.25;0.80;;;;;;;29.55;30.17;99207.70;1698141;81;27243;-69
2022/06/20 07:45:38;;;;;;;2.62;0.90;;;;;;;29.62;30.15;99201.81;1698777;81;20993;-67
2022/06/20 07:48:29;;;;;;;4.15;1.00;;;;;;;29.75;29.86;99211.92;1736750;80;21638;-66
2022/06/20 07:51:09;;;;;;;1.42;0.85;;;;;;;29.77;29.04;99213.38;1722361;80;21499;-66
2022/06/20 07:53:45;;;;;;;1.22;1.12;;;;;;;29.75;29.15;99211.92;1729101;80;21774;-65
2022/06/20 07:56:23;;;;;;;1.60;0.98;;;;;;;29.74;29.33;99205.64;1724459;81;21506;-65
2022/06/20 07:58:54;;;;;;;1.50;1.05;;;;;;;29.81;29.62;99205.17;1735520;80;21592;-65
2022/06/20 08:01:30;;;;;;;3.80;1.00;;;;;;;29.83;29.69;99204.44;1735806;81;21545;-67
2022/06/20 08:04:01;;;;;;;2.27;1.00;;;;;;;29.97;29.38;99208.56;1734873;81;20958;-68
2022/06/20 08:06:36;;;;;;;2.98;1.15;;;;;;;30.04;29.14;99200.77;1700289;82;22051;-69
2022/06/20 08:09:25;;;;;;;2.62;1.17;;;;;;;30.11;29.62;99206.23;1676002;84;21626;-68
2022/06/20 08:12:05;;;;;;;2.77;1.20;;;;;;;30.18;29.89;99194.08;1675603;84;21586;-65
2022/06/20 08:14:58;;;;;;;2.12;1.05;;;;;;;30.16;29.22;99220.02;1646302;83;21020;-67
2022/06/20 08:17:25;;;;;;;1.72;1.17;;;;;;;30.16;29.14;99190.20;1686284;83;21534;-66
2022/06/20 08:19:54;;;;;;;5.97;1.02;;;;;;;30.20;29.79;99190.63;1669004;84;21521;-68
2022/06/20 08:22:27;;;;;;;2.58;1.20;;;;;;;30.25;29.44;99189.48;1666817;84;21580;-66
2022/06/20 08:25:17;;;;;;;4.55;1.10;;;;;;;30.34;29.69;99192.35;1668585;83;21524;-67
2022/06/20 08:27:59;;;;;;;2.05;0.93;;;;;;;30.47;29.27;99194.27;1666821;84;21064;-65
2022/06/20 08:30:39;;;;;;;3.10;1.10;;;;;;;30.47;28.89;99189.67;1700466;82;21490;-65
2022/06/20 08:33:11;;;;;;;4.62;1.12;;;;;;;30.50;29.05;99187.08;1683641;83;21565;-66
2022/06/20 08:35:47;;;;;;;4.25;1.30;;;;;;;30.57;28.81;99185.22;1692488;82;21498;-68
2022/06/20 08:38:32;;;;;;;3.35;1.10;;;;;;;30.60;29.21;99175.30;1695633;82;21561;-66
2022/06/20 08:41:13;;;;;;;1.92;0.98;;;;;;;30.69;29.58;99180.54;1722343;81;21512;-66
2022/06/20 08:44:23;;;;;;;4.75;0.98;;;;;;;30.76;28.98;99179.50;1715208;82;21433;-66
2022/06/20 08:47:21;;;;;;;1.07;0.98;;;;;;;30.84;29.08;99180.64;1714923;81;21843;-68
2022/06/20 08:50:33;;;;;;;2.45;1.20;;;;;;;30.93;28.97;99173.16;1716520;81;21565;-67
2022/06/20 08:53:49;;;;;;;4.60;1.15;;;;;;;30.98;28.46;99171.98;1713905;81;21464;-66
2022/06/20 08:56:51;;;;;;;2.58;0.82;;;;;;;30.99;27.39;99183.17;1716373;82;21569;-66
2022/06/20 08:59:48;;;;;;;3.92;1.05;;;;;;;30.92;27.68;99176.08;1717216;81;21444;-66
2022/06/20 09:02:26;;;;;;;5.22;1.20;;;;;;;30.89;27.96;99172.38;1717247;80;21805;-63
2022/06/20 09:05:29;;;;;;;2.47;1.30;;;;;;;30.89;28.25;99165.60;1721663;82;21434;-62
2022/06/20 09:08:24;;;;;;;3.27;1.30;;;;;;;30.91;27.95;99164.40;1715366;81;21507;-64
2022/06/20 09:11:06;;;;;;;8.58;1.20;;;;;;;31.01;28.08;99174.30;1723189;82;20991;-64
2022/06/20 09:13:51;;;;;;;3.00;1.12;;;;;;;30.95;27.52;99168.36;1714487;81;21502;-66
2022/06/20 09:16:30;;;;;;;2.05;0.80;;;;;;;30.96;27.95;99169.19;1714295;82;21860;-65
2022/06/20 09:19:12;;;;;;;3.75;1.12;;;;;;;31.05;27.60;99155.71;1716429;80;21435;-66
2022/06/20 09:22:17;;;;;;;3.37;0.95;;;;;;;31.15;27.93;99155.28;1729222;80;21491;-66
2022/06/20 09:25:24;;;;;;;3.62;1.05;;;;;;;31.28;27.31;99151.71;1721790;81;21527;-64
2022/06/20 09:28:20;;;;;;;2.70;1.17;;;;;;;31.32;27.32;99159.20;1719718;81;21492;-65
2022/06/20 09:31:15;;;;;;;2.47;1.10;;;;;;;31.30;27.12;99137.39;1724916;81;21801;-64
2022/06/20 09:34:32;;;;;;;1.57;0.90;;;;;;;31.33;27.89;99133.73;1721113;81;21042;-63
2022/06/20 09:37:29;;;;;;;5.12;1.20;;;;;;;31.43;26.94;99132.75;1723096;80;21499;-61
2022/06/20 09:40:31;;;;;;;3.25;1.12;;;;;;;31.59;27.04;99138.78;1724146;81;21580;-63
2022/06/20 09:43:24;;;;;;;2.15;0.80;;;;;;;31.78;26.93;99138.42;1723620;81;21451;-62
2022/06/20 09:46:18;;;;;;;3.37;1.25;;;;;;;31.91;26.63;99126.13;1734657;81;22121;-62
2022/06/20 09:48:57;;;;;;;3.25;1.47;;;;;;;31.98;26.86;99135.05;1734228;81;21558;-61
2022/06/20 09:51:50;;;;;;;3.55;1.42;;;;;;;32.04;26.79;99132.02;1730977;81;21447;-61
2022/06/20 09:54:31;;;;;;;5.47;1.30;;;;;;;32.00;26.30;99132.98;1726112;81;21018;-62
2022/06/20 09:57:23;;;;;;;1.65;1.15;;;;;;;31.99;26.61;99134.55;1716792;81;21487;-62
2022/06/20 10:00:12;;;;;;;6.12;1.40;;;;;;;32.01;26.48;99125.65;1734685;81;21655;-61
2022/06/20 10:02:57;;;;;;;2.60;1.35;;;;;;;32.09;26.12;99132.74;1727363;81;21534;-60
2022/06/20 10:06:02;;;;;;;4.75;1.12;;;;;;;32.14;26.09;99143.81;1725245;81;21613;-61
2022/06/20 10:08:56;;;;;;;2.20;1.07;;;;;;;32.13;26.48;99131.25;1735755;80;21045;-61
2022/06/20 10:11:31;;;;;;;3.80;1.37;;;;;;;32.17;25.98;99118.88;1712236;81;21566;-60
2022/06/20 10:14:23;;;;;;;1.62;1.17;;;;;;;32.15;26.05;99112.30;1729325;81;21415;-61
2022/06/20 10:17:22;;;;;;;3.05;1.40;;;;;;;32.22;26.50;99112.80;1722735;81;21700;-60
2022/06/20 10:20:35;;;;;;;9.58;1.45;;;;;;;32.24;26.28;99100.64;1725543;81;21631;-62
2022/06/20 10:23:11;;;;;;;2.17;1.40;;;;;;;32.25;26.34;99098.23;1732359;81;21731;-60
2022/06/20 10:25:58;;;;;;;2.40;1.20;;;;;;;32.32;25.87;99091.38;1730088;81;21551;-62
2022/06/20 10:29:04;;;;;;;4.28;1.60;;;;;;;32.35;26.05;99096.38;1727425;80;21788;-60
2022/06/20 10:32:13;;;;;;;4.25;1.47;;;;;;;32.38;25.65;99089.13;1729635;81;21415;-62
2022/06/20 10:34:56;;;;;;;4.60;1.60;;;;;;;32.36;25.91;99079.00;1728655;81;21498;-61
2022/06/20 10:37:33;;;;;;;2.80;1.42;;;;;;;32.42;26.27;99084.08;1726356;81;21029;-61
2022/06/20 10:40:56;;;;;;;2.45;1.60;;;;;;;32.46;26.05;99084.79;1730953;81;21479;-60
2022/06/20 10:43:38;;;;;;;2.17;1.52;;;;;;;32.53;25.90;99081.49;1673670;83;21936;-61
2022/06/20 10:46:50;;;;;;;4.92;1.98;;;;;;;32.64;26.23;99076.39;1674875;83;21627;-60
2022/06/20 10:52:57;;;;;;;3.52;1.72;;;;;;;32.18;26.79;99079.23;1784457;79;23300;-62
2022/06/20 10:55:44;;;;;;;1.90;1.40;;;;;;;32.75;26.21;99096.08;1773324;80;22012;-61
2022/06/20 10:58:35;;;;;;;2.20;1.45;;;;;;;32.86;25.24;99087.72;1771231;80;21793;-62
2022/06/20 11:01:25;;;;;;;1.75;1.20;;;;;;;32.88;25.00;99074.71;1767239;79;21420;-60
2022/06/20 11:04:07;;;;;;;1.45;1.17;;;;;;;32.92;25.27;99071.30;1771682;80;21420;-61
2022/06/20 11:07:03;;;;;;;4.00;1.40;;;;;;;32.88;25.10;99077.43;1714789;81;21541;-61
2022/06/20 11:09:48;;;;;;;5.78;1.47;;;;;;;32.86;24.94;99065.41;1696421;83;21486;-60
2022/06/20 11:12:48;;;;;;;2.02;1.20;;;;;;;32.85;25.12;99055.59;1714234;82;21906;-60
2022/06/20 11:15:49;;;;;;;2.85;1.30;;;;;;;32.86;25.00;99036.82;1711771;82;21673;-62
2022/06/20 11:18:24;;;;;;;3.90;1.20;;;;;;;32.95;25.51;99036.83;1710019;82;21590;-62
2022/06/20 11:21:08;;;;;;;1.95;1.47;;;;;;;33.05;25.06;99022.69;1705084;83;21022;-61
2022/06/20 11:23:50;;;;;;;1.40;1.22;;;;;;;33.12;25.09;99031.64;1707788;81;21033;-62
2022/06/20 11:26:32;;;;;;;4.05;1.45;;;;;;;33.12;24.36;99036.27;1701164;83;22198;-61
2022/06/20 11:29:28;;;;;;;5.17;1.20;;;;;;;33.07;24.59;99038.80;1712388;83;21692;-61
2022/06/20 11:32:16;;;;;;;3.45;1.00;;;;;;;33.02;24.88;99033.19;1712022;83;21571;-62
2022/06/20 11:35:21;;;;;;;4.30;1.30;;;;;;;33.01;25.08;99030.19;1703376;82;21018;-62
2022/06/20 11:38:15;;;;;;;2.55;1.27;;;;;;;33.06;24.77;99031.67;1708365;83;21537;-62
2022/06/20 11:41:12;;;;;;;5.17;1.20;;;;;;;33.12;25.15;99025.37;1694693;83;21424;-61
2022/06/20 11:43:54;;;;;;;2.10;1.07;;;;;;;33.19;24.72;99030.22;1712262;83;21553;-61
2022/06/20 11:46:58;;;;;;;1.57;0.90;;;;;;;33.24;24.82;99030.88;1714372;82;21467;-60
2022/06/20 11:49:31;;;;;;;2.02;1.02;;;;;;;33.38;24.68;99019.28;1715566;82;21041;-63
2022/06/20 11:52:23;;;;;;;3.92;1.20;;;;;;;33.56;24.50;99006.98;1695432;82;21502;-63
2022/06/20 11:54:59;;;;;;;2.95;1.15;;;;;;;33.68;24.68;99007.91;1723770;82;21523;-66
2022/06/20 11:57:46;;;;;;;3.02;1.22;;;;;;;33.71;24.24;99007.42;1722809;82;21354;-66
2022/06/20 12:00:21;;;;;;;4.80;1.37;;;;;;;33.73;24.22;99003.11;1731983;82;21450;-66
2022/06/20 12:03:38;;;;;;;4.17;1.20;;;;;;;33.74;24.27;99011.06;1726432;81;21432;-65
2022/06/20 12:06:23;;;;;;;4.03;0.93;;;;;;;33.75;24.17;99000.44;1734387;82;21557;-64
2022/06/20 12:09:04;;;;;;;4.37;1.00;;;;;;;33.84;24.00;98995.49;1722480;82;21797;-64
2022/06/20 12:11:56;;;;;;;3.72;1.30;;;;;;;33.88;24.31;98984.42;1724892;82;21506;-64
2022/06/20 12:14:32;;;;;;;9.30;1.10;;;;;;;33.90;24.21;98982.83;1720311;82;21471;-62
2022/06/20 12:17:31;;;;;;;1.12;0.90;;;;;;;33.88;24.08;98980.87;1722867;82;21564;-61
2022/06/20 12:23:18;;;;;;;2.85;1.10;;;;;;;33.78;23.85;98983.34;1723685;82;21804;-63
2022/06/20 12:25:50;;;;;;;1.55;1.12;;;;;;;33.81;23.74;98977.41;1724611;82;21506;-62
2022/06/20 12:28:36;;;;;;;2.25;1.05;;;;;;;33.82;23.85;98977.72;1734653;82;21506;-62
2022/06/20 12:31:20;;;;;;;3.52;1.12;;;;;;;33.88;23.71;98967.23;1724396;82;21549;-61
2022/06/20 12:33:57;;;;;;;4.83;0.95;;;;;;;33.90;23.99;98965.92;1733412;82;21430;-62
2022/06/20 12:36:57;;;;;;;3.77;0.90;;;;;;;33.99;23.98;98962.34;1733067;82;21927;-62
2022/06/20 12:39:34;;;;;;;1.40;0.82;;;;;;;34.05;23.41;98957.30;1724069;81;21073;-62
2022/06/20 12:42:38;;;;;;;2.80;1.02;;;;;;;34.08;23.48;98958.20;1723754;82;21444;-62
2022/06/20 12:45:54;;;;;;;2.35;0.70;;;;;;;34.13;23.89;98961.57;1728797;81;21633;-62
2022/06/20 12:48:48;;;;;;;2.85;0.95;;;;;;;34.12;23.38;98953.11;1701076;82;21488;-61